createdAt,value
2024-05-09T00:01:27.063Z,3.70
2024-05-09T00:03:57.503Z,4.18
2024-05-09T00:06:28.002Z,3.95
2024-05-09T00:09:01.184Z,4.45
2024-05-09T00:11:31.711Z,3.53
2024-05-09T00:14:02.263Z,3.35
2024-05-09T00:16:32.781Z,3.17
2024-05-09T00:19:03.387Z,3.75
2024-05-09T00:21:34.163Z,3.10
2024-05-09T00:24:07.632Z,3.33
2024-05-09T00:26:38.242Z,3.33
2024-05-09T00:29:08.942Z,2.92
2024-05-09T00:31:39.502Z,3.22
2024-05-09T00:34:10.068Z,2.55
2024-05-09T00:36:40.881Z,3.47
2024-05-09T00:39:14.051Z,3.22
2024-05-09T00:41:44.616Z,2.55
2024-05-09T00:44:15.311Z,3.15
2024-05-09T00:46:46.329Z,2.72
2024-05-09T00:49:17.119Z,2.78
2024-05-09T00:51:48.387Z,2.80
2024-05-09T00:54:22.228Z,1.77
2024-05-09T00:56:53.922Z,2.47
2024-05-09T00:59:26.883Z,2.47
2024-05-09T01:01:57.502Z,3.03
2024-05-09T01:04:28.069Z,2.55
2024-05-09T01:06:58.869Z,1.95
2024-05-09T01:09:32.012Z,2.30
2024-05-09T01:12:02.638Z,2.00
2024-05-09T01:14:33.185Z,1.98
2024-05-09T01:17:04.115Z,1.70
2024-05-09T01:19:36.089Z,1.20
2024-05-09T01:22:08.326Z,1.50
2024-05-09T01:24:41.562Z,1.35
2024-05-09T01:27:11.973Z,1.10
2024-05-09T01:29:42.377Z,1.15
2024-05-09T01:32:12.940Z,1.20
2024-05-09T01:34:43.685Z,1.50
2024-05-09T01:37:14.218Z,1.35
2024-05-09T01:39:47.472Z,0.98
2024-05-09T01:42:18.912Z,0.60
2024-05-09T01:44:49.496Z,1.23
2024-05-09T01:47:23.067Z,0.90
2024-05-09T01:49:53.868Z,0.93
2024-05-09T01:52:24.445Z,0.90
2024-05-09T01:54:58.714Z,0.98
2024-05-09T01:57:30.017Z,1.15
2024-05-09T02:00:01.608Z,0.85
2024-05-09T02:05:17.429Z,0.80
2024-05-09T02:07:47.943Z,1.00
2024-05-09T02:10:26.376Z,0.90
2024-05-09T02:13:02.420Z,0.75
2024-05-09T02:15:32.763Z,0.70
2024-05-09T02:18:03.262Z,0.98
2024-05-09T02:20:36.514Z,0.63
2024-05-09T02:23:07.858Z,0.50
2024-05-09T02:25:40.863Z,0.85
2024-05-09T02:28:11.815Z,0.70
2024-05-09T02:30:42.688Z,0.93
2024-05-09T02:33:14.433Z,0.80
2024-05-09T02:35:45.851Z,0.70
2024-05-09T02:38:13.869Z,0.73
2024-05-09T02:40:46.909Z,1.02
2024-05-09T02:43:17.418Z,0.68
2024-05-09T02:45:45.248Z,0.73
2024-05-09T02:48:15.812Z,1.33
2024-05-09T02:50:44.728Z,1.83
2024-05-09T02:53:15.744Z,1.20
2024-05-09T02:55:46.356Z,1.00
2024-05-09T02:58:16.896Z,1.10
2024-05-09T03:00:44.610Z,1.00
2024-05-09T03:03:15.833Z,0.60
2024-05-09T03:05:43.984Z,0.60
2024-05-09T03:08:14.623Z,0.60
2024-05-09T03:10:43.599Z,0.47
2024-05-09T03:13:17.515Z,0.70
2024-05-09T03:15:45.856Z,0.60
2024-05-09T03:18:16.282Z,0.38
2024-05-09T03:20:44.688Z,0.60
2024-05-09T03:23:15.322Z,0.50
2024-05-09T03:25:42.953Z,0.40
2024-05-09T03:28:15.884Z,0.50
2024-05-09T03:30:43.613Z,0.95
2024-05-09T03:33:15.428Z,0.50
2024-05-09T03:35:44.241Z,0.52
2024-05-09T03:38:14.608Z,0.60
2024-05-09T03:40:46.786Z,0.70
2024-05-09T03:43:20.422Z,0.77
2024-05-09T03:45:52.281Z,0.40
2024-05-09T03:48:20.136Z,0.40
2024-05-09T03:50:50.920Z,0.77
2024-05-09T03:53:18.708Z,0.60
2024-05-09T03:55:50.864Z,0.50
2024-05-09T03:58:21.305Z,0.63
2024-05-09T04:00:51.837Z,0.50
2024-05-09T04:03:20.446Z,1.02
2024-05-09T04:05:51.451Z,0.70
2024-05-09T04:08:19.290Z,0.52
2024-05-09T04:10:49.837Z,0.57
2024-05-09T04:13:17.445Z,0.55
2024-05-09T04:15:50.518Z,0.40
2024-05-09T04:18:18.729Z,0.47
2024-05-09T04:20:49.951Z,0.80
2024-05-09T04:23:17.836Z,0.47
2024-05-09T04:25:48.380Z,0.50
2024-05-09T04:28:16.696Z,0.80
2024-05-09T04:30:51.902Z,0.50
2024-05-09T04:33:20.922Z,0.57
2024-05-09T04:35:51.734Z,0.52
2024-05-09T04:38:20.087Z,0.45
2024-05-09T04:40:50.567Z,0.57
2024-05-09T04:43:19.765Z,0.50
2024-05-09T04:45:53.747Z,0.47
2024-05-09T04:48:21.715Z,0.60
2024-05-09T04:50:52.314Z,0.47
2024-05-09T04:53:20.523Z,0.57
2024-05-09T04:55:51.353Z,0.43
2024-05-09T04:58:19.076Z,0.52
2024-05-09T05:00:49.439Z,0.45
2024-05-09T05:03:20.005Z,0.40
2024-05-09T05:05:50.619Z,0.25
2024-05-09T05:08:19.457Z,0.40
2024-05-09T05:10:50.841Z,0.52
2024-05-09T05:13:23.942Z,1.02
2024-05-09T05:15:57.667Z,0.60
2024-05-09T05:18:29.136Z,0.60
2024-05-09T05:21:00.683Z,0.57
2024-05-09T05:23:28.597Z,0.60
2024-05-09T05:25:59.128Z,0.40
2024-05-09T05:28:26.912Z,0.38
2024-05-09T05:30:57.413Z,0.40
2024-05-09T05:33:28.148Z,0.57
2024-05-09T05:35:58.790Z,0.50
2024-05-09T05:38:28.378Z,0.57
2024-05-09T05:40:59.683Z,1.02
2024-05-09T05:43:31.327Z,0.40
2024-05-09T05:46:01.807Z,0.38
2024-05-09T05:48:32.509Z,0.40
2024-05-09T05:51:04.614Z,0.30
2024-05-09T05:53:32.538Z,0.32
2024-05-09T05:56:03.236Z,0.30
2024-05-09T05:58:31.050Z,0.40
2024-05-09T06:01:01.913Z,0.38
2024-05-09T06:03:32.636Z,0.55
2024-05-09T06:06:06.367Z,0.30
2024-05-09T06:08:34.281Z,0.30
2024-05-09T06:11:06.194Z,0.20
2024-05-09T06:13:36.614Z,0.40
2024-05-09T06:16:08.352Z,0.35
2024-05-09T06:18:42.077Z,0.30
2024-05-09T06:21:17.294Z,0.73
2024-05-09T06:23:53.487Z,0.60
2024-05-09T06:26:21.484Z,0.30
2024-05-09T06:28:52.203Z,0.38
2024-05-09T06:31:19.882Z,0.30
2024-05-09T06:33:53.357Z,0.40
2024-05-09T06:36:21.264Z,0.32
2024-05-09T06:38:51.766Z,0.52
2024-05-09T06:41:19.564Z,0.40
2024-05-09T06:43:51.282Z,0.82
2024-05-09T06:46:19.227Z,0.40
2024-05-09T06:48:53.223Z,0.90
2024-05-09T06:51:21.737Z,0.30
2024-05-09T06:53:52.531Z,0.38
2024-05-09T06:56:20.640Z,0.40
2024-05-09T06:58:51.315Z,0.22
2024-05-09T07:01:19.241Z,0.30
2024-05-09T07:03:52.481Z,0.25
2024-05-09T07:06:20.158Z,0.40
2024-05-09T07:08:52.601Z,0.47
2024-05-09T07:11:20.819Z,0.30
2024-05-09T07:13:52.418Z,0.20
2024-05-09T07:16:20.593Z,0.30
2024-05-09T07:18:55.464Z,0.55
2024-05-09T07:21:24.016Z,0.30
2024-05-09T07:23:54.418Z,0.30
2024-05-09T07:26:22.469Z,0.55
2024-05-09T07:28:53.389Z,0.50
2024-05-09T07:31:21.330Z,0.40
2024-05-09T07:33:54.725Z,0.40
2024-05-09T07:36:22.543Z,0.30
2024-05-09T07:38:53.061Z,0.70
2024-05-09T07:41:20.888Z,0.70
2024-05-09T07:43:51.695Z,0.40
2024-05-09T07:47:14.522Z,0.47
2024-05-09T07:50:54.896Z,0.40
2024-05-09T07:53:25.180Z,0.30
2024-05-09T07:54:51.125Z,0.30
2024-05-09T07:57:19.824Z,0.30
2024-05-09T07:59:50.553Z,0.35
2024-05-09T08:02:18.405Z,0.35
2024-05-09T08:05:01.760Z,0.35
2024-05-09T08:07:30.091Z,0.28
2024-05-09T08:10:00.852Z,0.32
2024-05-09T08:12:28.534Z,0.50
2024-05-09T08:14:59.314Z,0.40
2024-05-09T08:17:27.143Z,0.20
2024-05-09T08:20:01.976Z,1.08
2024-05-09T08:22:32.465Z,0.30
2024-05-09T08:25:03.230Z,0.20
2024-05-09T08:27:31.132Z,0.20
2024-05-09T08:30:01.962Z,0.20
2024-05-09T08:32:32.502Z,0.20
2024-05-09T08:35:05.924Z,0.30
2024-05-09T08:37:37.932Z,0.40
2024-05-09T08:40:23.471Z,0.20
2024-05-09T08:42:57.781Z,0.20
2024-05-09T08:45:29.839Z,0.15
2024-05-09T08:48:01.575Z,0.30
2024-05-09T08:50:38.908Z,0.50
2024-05-09T08:53:08.332Z,0.32
2024-05-09T08:55:42.640Z,0.20
2024-05-09T08:58:16.084Z,0.30
2024-05-09T09:00:48.098Z,0.20
2024-05-09T09:03:18.301Z,0.30
2024-05-09T09:06:05.981Z,0.30
2024-05-09T09:08:33.819Z,0.20
2024-05-09T09:11:04.630Z,0.20
2024-05-09T09:13:32.552Z,0.20
2024-05-09T09:16:04.109Z,0.30
2024-05-09T09:18:33.348Z,0.22
2024-05-09T09:21:07.792Z,0.20
2024-05-09T09:23:35.461Z,0.17
2024-05-09T09:26:06.264Z,0.47
2024-05-09T09:28:37.353Z,0.30
2024-05-09T09:31:08.185Z,0.20
2024-05-09T09:33:41.813Z,0.20
2024-05-09T09:36:15.139Z,0.30
2024-05-09T09:38:43.545Z,0.20
2024-05-09T09:41:15.950Z,0.30
2024-05-09T09:43:44.476Z,0.77
2024-05-09T09:46:16.601Z,0.30
2024-05-09T09:51:19.093Z,0.30
2024-05-09T09:53:47.847Z,0.70
2024-05-09T09:56:21.569Z,0.70
2024-05-09T09:58:50.366Z,0.20
2024-05-09T10:01:20.914Z,0.30
2024-05-09T10:03:49.049Z,0.20
2024-05-09T10:06:23.226Z,0.20
2024-05-09T10:08:51.482Z,0.38
2024-05-09T10:11:23.973Z,0.20
2024-05-09T10:13:54.171Z,0.30
2024-05-09T10:16:25.299Z,0.30
2024-05-09T10:18:53.213Z,0.35
2024-05-09T10:21:26.859Z,0.20
2024-05-09T10:23:59.337Z,0.30
2024-05-09T10:26:40.512Z,0.20
2024-05-09T10:29:12.862Z,0.20
2024-05-09T10:31:46.265Z,0.20
2024-05-09T10:34:17.976Z,0.40
2024-05-09T10:36:56.131Z,0.25
2024-05-09T10:39:26.663Z,0.20
2024-05-09T10:41:57.374Z,0.20
2024-05-09T10:44:25.139Z,0.20
2024-05-09T10:46:57.009Z,0.30
2024-05-09T10:49:25.008Z,0.20
2024-05-09T10:51:58.960Z,0.40
2024-05-09T10:54:36.763Z,0.20
2024-05-09T10:57:08.118Z,0.10
2024-05-09T10:59:37.123Z,0.10
2024-05-09T11:02:09.291Z,0.43
2024-05-09T11:07:13.837Z,0.20
2024-05-09T11:09:42.855Z,0.10
2024-05-09T11:12:14.243Z,0.20
2024-05-09T11:14:53.161Z,0.20
2024-05-09T11:17:24.106Z,0.10
2024-05-09T11:19:52.236Z,0.15
2024-05-09T11:22:25.754Z,0.20
2024-05-09T11:24:55.196Z,0.13
2024-05-09T11:27:26.820Z,0.10
2024-05-09T11:29:54.605Z,0.40
2024-05-09T11:32:33.206Z,0.15
2024-05-09T11:35:01.049Z,0.20
2024-05-09T11:37:37.151Z,0.20
2024-05-09T11:40:11.422Z,0.20
2024-05-09T11:42:47.724Z,0.52
2024-05-09T11:45:16.642Z,0.20
2024-05-09T11:47:47.608Z,0.20
2024-05-09T11:50:22.610Z,0.55
2024-05-09T11:53:03.073Z,0.10
2024-05-09T11:55:31.212Z,0.20
2024-05-09T11:58:01.895Z,0.10
2024-05-09T12:00:36.553Z,0.30
2024-05-09T12:03:09.252Z,0.20
2024-05-09T12:05:37.126Z,0.30
2024-05-09T12:08:11.166Z,0.20
2024-05-09T12:10:39.049Z,0.17
2024-05-09T12:13:10.015Z,0.30
2024-05-09T12:15:38.818Z,0.17
2024-05-09T12:18:09.989Z,0.20
2024-05-09T12:20:39.765Z,0.20
2024-05-09T12:23:13.946Z,0.10
2024-05-09T12:25:42.454Z,0.10
2024-05-09T12:28:13.293Z,0.10
2024-05-09T12:30:41.733Z,0.20
2024-05-09T12:33:14.002Z,0.22
2024-05-09T12:38:20.112Z,0.17
2024-05-09T12:40:48.226Z,0.20
2024-05-09T12:43:18.822Z,0.28
2024-05-09T12:45:46.744Z,0.28
2024-05-09T12:48:17.341Z,0.20
2024-05-09T12:50:45.205Z,0.28
2024-05-09T12:53:15.955Z,0.20
2024-05-09T12:55:53.593Z,0.22
2024-05-09T12:58:28.039Z,0.10
2024-05-09T13:00:56.023Z,0.13
2024-05-09T13:03:27.001Z,0.20
2024-05-09T13:05:55.834Z,0.10
2024-05-09T13:08:26.537Z,0.20
2024-05-09T13:10:57.096Z,0.10
2024-05-09T13:13:29.125Z,0.10
2024-05-09T13:15:56.904Z,0.20
2024-05-09T13:18:27.926Z,0.10
2024-05-09T13:20:55.730Z,0.10
2024-05-09T13:23:26.297Z,0.17
2024-05-09T13:25:56.699Z,0.10
2024-05-09T13:28:27.549Z,0.40
2024-05-09T13:30:55.497Z,0.20
2024-05-09T13:33:26.311Z,0.20
2024-05-09T13:35:54.177Z,0.20
2024-05-09T13:38:25.120Z,0.20
2024-05-09T13:40:53.005Z,0.15
2024-05-09T13:43:26.552Z,0.20
2024-05-09T13:45:56.041Z,0.20
2024-05-09T13:48:27.110Z,0.10
2024-05-09T13:50:54.897Z,0.20
2024-05-09T13:53:25.605Z,0.10
2024-05-09T13:55:53.480Z,0.20
2024-05-09T13:58:27.014Z,0.10
2024-05-09T14:00:54.912Z,0.10
2024-05-09T14:03:27.260Z,0.10
2024-05-09T14:05:55.374Z,0.13
2024-05-09T14:08:26.293Z,0.28
2024-05-09T14:10:54.566Z,0.20
2024-05-09T14:13:28.120Z,0.20
2024-05-09T14:15:56.024Z,0.20
2024-05-09T14:18:26.844Z,0.28
2024-05-09T14:20:54.542Z,0.20
2024-05-09T14:23:26.604Z,0.10
2024-05-09T14:28:29.146Z,0.30
2024-05-09T14:30:57.022Z,0.20
2024-05-09T14:33:28.166Z,0.13
2024-05-09T14:35:56.231Z,0.20
2024-05-09T14:38:27.593Z,0.20
2024-05-09T14:40:55.698Z,0.20
2024-05-09T14:43:29.324Z,0.20
2024-05-09T14:45:57.416Z,0.30
2024-05-09T14:48:27.982Z,0.25
2024-05-09T14:50:55.658Z,0.10
2024-05-09T14:53:27.298Z,0.20
2024-05-09T14:55:55.488Z,0.40
2024-05-09T14:58:28.934Z,0.35
2024-05-09T15:00:56.893Z,0.20
2024-05-09T15:03:27.988Z,0.30
2024-05-09T15:05:55.880Z,0.20
2024-05-09T15:08:26.779Z,0.30
2024-05-09T15:10:54.601Z,0.22
2024-05-09T15:13:25.268Z,0.10
2024-05-09T15:15:56.192Z,0.10
2024-05-09T15:18:27.087Z,0.15
2024-05-09T15:20:54.970Z,0.82
2024-05-09T15:23:25.928Z,0.10
2024-05-09T15:25:53.731Z,0.17
2024-05-09T15:28:24.616Z,0.85
2024-05-09T15:30:55.357Z,0.15
2024-05-09T15:33:27.998Z,0.10
2024-05-09T15:35:55.828Z,0.40
2024-05-09T15:38:26.695Z,0.10
2024-05-09T15:40:54.505Z,0.40
2024-05-09T15:43:25.586Z,0.10
2024-05-09T15:45:56.225Z,0.10
2024-05-09T15:48:26.779Z,0.20
2024-05-09T15:50:54.678Z,0.55
2024-05-09T15:53:25.436Z,0.28
2024-05-09T15:55:53.154Z,0.10
2024-05-09T15:58:25.129Z,0.10
2024-05-09T16:00:55.857Z,0.30
2024-05-09T16:03:26.988Z,0.20
2024-05-09T16:05:57.783Z,0.15
2024-05-09T16:08:28.550Z,0.20
2024-05-09T16:10:56.487Z,0.25
2024-05-09T16:13:27.316Z,0.10
2024-05-09T16:15:58.332Z,0.20
2024-05-09T16:18:29.174Z,0.10
2024-05-09T16:21:00.434Z,0.20
2024-05-09T16:23:31.533Z,0.20
2024-05-09T16:25:59.329Z,0.20
2024-05-09T16:28:29.789Z,0.10
2024-05-09T16:31:01.699Z,0.10
2024-05-09T16:33:32.826Z,0.20
2024-05-09T16:36:00.928Z,0.10
2024-05-09T16:38:31.588Z,0.17
2024-05-09T16:40:59.409Z,0.20
2024-05-09T16:43:30.269Z,0.30
2024-05-09T16:46:00.797Z,0.40
2024-05-09T16:48:31.749Z,0.20
2024-05-09T16:50:59.566Z,0.10
2024-05-09T16:53:29.969Z,0.30
2024-05-09T16:55:57.820Z,0.20
2024-05-09T16:58:28.875Z,0.10
2024-05-09T17:00:56.797Z,0.15
2024-05-09T17:03:30.292Z,0.30
2024-05-09T17:05:58.251Z,0.17
2024-05-09T17:08:28.610Z,0.20
2024-05-09T17:10:56.509Z,0.20
2024-05-09T17:13:27.532Z,0.10
2024-05-09T17:15:55.550Z,0.10
2024-05-09T17:18:26.258Z,0.90
2024-05-09T17:20:59.392Z,0.57
2024-05-09T17:23:28.129Z,0.10
2024-05-09T17:25:58.943Z,0.20
2024-05-09T17:28:26.843Z,0.20
2024-05-09T17:30:57.639Z,0.20
2024-05-09T17:33:25.466Z,0.25
2024-05-09T17:35:58.509Z,0.20
2024-05-09T17:38:26.328Z,0.20
2024-05-09T17:40:57.807Z,0.20
2024-05-09T17:43:26.002Z,0.25
2024-05-09T17:45:56.675Z,0.40
2024-05-09T17:48:24.747Z,0.30
2024-05-09T17:50:55.601Z,0.25
2024-05-09T17:53:26.146Z,0.45
2024-05-09T17:55:56.713Z,0.40
2024-05-09T17:58:27.462Z,0.30
2024-05-09T18:00:55.443Z,0.45
2024-05-09T18:03:26.737Z,0.40
2024-05-09T18:05:54.988Z,0.60
2024-05-09T18:08:28.286Z,0.50
2024-05-09T18:10:56.220Z,0.50
2024-05-09T18:13:27.313Z,0.60
2024-05-09T18:15:55.369Z,0.73
2024-05-09T18:18:26.472Z,0.50
2024-05-09T18:20:54.502Z,0.40
2024-05-09T18:23:28.081Z,0.30
2024-05-09T18:25:57.238Z,0.40
2024-05-09T18:28:28.555Z,0.60
2024-05-09T18:30:56.570Z,0.60
2024-05-09T18:33:27.383Z,0.80
2024-05-09T18:35:55.322Z,0.88
2024-05-09T18:38:29.875Z,0.60
2024-05-09T18:40:58.459Z,0.60
2024-05-09T18:43:38.223Z,0.65
2024-05-09T18:46:13.485Z,0.70
2024-05-09T18:48:45.451Z,0.50
2024-05-09T18:51:14.941Z,0.60
2024-05-09T18:53:49.369Z,0.80
2024-05-09T18:56:19.378Z,1.00
2024-05-09T18:58:51.181Z,1.08
2024-05-09T19:01:19.843Z,0.80
2024-05-09T19:03:51.758Z,0.75
2024-05-09T19:06:24.510Z,0.77
2024-05-09T19:08:58.874Z,0.75
2024-05-09T19:11:27.264Z,0.70
2024-05-09T19:14:03.700Z,0.90
2024-05-09T19:16:32.133Z,0.50
2024-05-09T19:19:05.506Z,0.68
2024-05-09T19:21:34.517Z,0.88
2024-05-09T19:24:09.108Z,1.00
2024-05-09T19:26:38.179Z,1.00
2024-05-09T19:29:09.699Z,0.88
2024-05-09T19:31:39.359Z,1.08
2024-05-09T19:34:11.764Z,1.20
2024-05-09T19:39:16.174Z,1.55
2024-05-09T19:41:46.674Z,2.00
2024-05-09T19:44:18.463Z,3.13
2024-05-09T19:46:51.084Z,2.58
2024-05-09T19:49:23.887Z,2.10
2024-05-09T19:51:53.864Z,2.10
2024-05-09T19:54:28.362Z,2.13
2024-05-09T19:56:57.505Z,2.78
2024-05-09T19:59:29.484Z,2.22
2024-05-09T20:01:58.120Z,4.32
2024-05-09T20:04:29.408Z,3.28
2024-05-09T20:06:59.806Z,2.72
2024-05-09T20:09:33.970Z,3.70
2024-05-09T20:12:02.472Z,3.72
2024-05-09T20:14:36.863Z,3.40
2024-05-09T20:17:05.833Z,3.42
2024-05-09T20:19:37.711Z,3.75
2024-05-09T20:22:06.428Z,3.13
2024-05-09T20:24:41.455Z,2.83
2024-05-09T20:27:10.910Z,2.63
2024-05-09T20:29:43.605Z,2.08
2024-05-09T20:32:13.905Z,2.25
2024-05-09T20:34:50.766Z,1.85
2024-05-09T20:37:19.448Z,1.88
2024-05-09T20:39:56.381Z,2.53
2024-05-09T20:42:25.551Z,1.85
2024-05-09T20:44:57.172Z,2.08
2024-05-09T20:47:25.478Z,3.60
2024-05-09T20:53:03.621Z,2.28
2024-05-09T20:55:34.170Z,2.92
2024-05-09T20:58:04.983Z,2.30
2024-05-09T21:00:40.011Z,2.53
2024-05-09T21:03:15.185Z,2.20
2024-05-09T21:05:44.388Z,2.25
2024-05-09T21:08:14.817Z,1.90
2024-05-09T21:10:45.285Z,1.95
2024-05-09T21:13:15.838Z,1.80
2024-05-09T21:15:43.753Z,2.28
2024-05-09T21:18:13.998Z,2.58
2024-05-09T21:20:41.922Z,3.25
2024-05-09T21:23:12.392Z,2.85
2024-05-09T21:25:40.060Z,3.67
2024-05-09T21:28:14.986Z,3.03
2024-05-09T21:30:43.399Z,3.38
2024-05-09T21:33:15.307Z,3.10
2024-05-09T21:35:44.500Z,2.67
2024-05-09T21:38:16.363Z,1.88
2024-05-09T21:40:44.918Z,2.03
2024-05-09T21:43:18.293Z,1.70
2024-05-09T21:45:46.129Z,1.92
2024-05-09T21:48:16.561Z,1.60
2024-05-09T21:50:44.171Z,2.20
2024-05-09T21:53:15.700Z,3.28
2024-05-09T21:55:43.449Z,1.67
2024-05-09T21:58:14.814Z,1.90
2024-05-09T22:00:46.575Z,1.38
2024-05-09T22:03:17.344Z,1.73
2024-05-09T22:05:45.534Z,1.27
2024-05-09T22:08:15.975Z,1.08
2024-05-09T22:10:44.169Z,1.05
2024-05-09T22:13:15.902Z,1.40
2024-05-09T22:15:46.248Z,1.02
2024-05-09T22:18:16.872Z,0.98
2024-05-09T22:20:46.394Z,1.23
2024-05-09T22:23:17.894Z,2.10
2024-05-09T22:25:45.529Z,1.00
2024-05-09T22:28:17.726Z,1.13
2024-05-09T22:30:48.089Z,1.20
2024-05-09T22:33:18.707Z,0.98
2024-05-09T22:35:47.650Z,1.15
2024-05-09T22:38:18.003Z,0.80
2024-05-09T22:40:48.866Z,0.80
2024-05-09T22:43:24.554Z,0.82
2024-05-09T22:45:55.890Z,0.50
2024-05-09T22:48:26.654Z,1.00
2024-05-09T22:50:55.020Z,0.70
2024-05-09T22:53:26.614Z,0.70
2024-05-09T22:55:54.414Z,0.88
2024-05-09T22:58:25.672Z,0.55
2024-05-09T23:00:56.295Z,0.60
2024-05-09T23:03:26.860Z,0.57
2024-05-09T23:05:54.817Z,0.88
2024-05-09T23:08:25.385Z,0.40
2024-05-09T23:10:53.134Z,0.50
2024-05-09T23:13:23.757Z,0.40
2024-05-09T23:15:51.514Z,0.63
2024-05-09T23:18:24.459Z,0.68
2024-05-09T23:20:52.127Z,0.30
2024-05-09T23:23:22.323Z,0.95
2024-05-09T23:25:50.144Z,0.60
2024-05-09T23:28:20.381Z,0.35
2024-05-09T23:30:48.095Z,0.60
2024-05-09T23:33:18.502Z,0.60
2024-05-09T23:35:48.882Z,0.50
2024-05-09T23:38:21.694Z,0.60
2024-05-09T23:40:51.044Z,1.08
2024-05-09T23:43:21.923Z,0.70
2024-05-09T23:45:49.635Z,0.93
2024-05-09T23:48:20.179Z,0.50
2024-05-09T23:50:50.537Z,1.08
2024-05-09T23:53:20.756Z,1.30
2024-05-09T23:55:48.477Z,1.23
2024-05-09T23:58:18.971Z,1.15
